Tiempo atmosférico en la estación meteorológica de Barbate, Cádiz (4 m.)



Fecha
DESCASC
Temp. máxima en grados centígrados (hora)
DESCASC
Temp. mínima en grados centígrados (hora)
DESCASC
Temp. media en grados centígrados
DESCASC
Racha de viento máxima en m/sg (hora)
DESCASC
Velocidad máxima media en intervalos de 10 minutos(hora)
DESCASC
Precipitaciones diarias en mm
DESCASC
Precipitaciones de 00:00 a 06:00 en mm
DESCASC
Precipitaciones de 06:00 a 12:00 en mm
DESCASC
Precipitaciones de 12:00 a 18:00 en mm
DESCASC
Precipitaciones de 18:00 a 24:00 en mm
DESCASC
14-02-2019 18.4 (14:20) 13.3 (06:30) 15.8 20 (20:30) 9.44 (12:30) 0 0 0 0 0
13-02-2019 18.3 (14:30) 13.4 (04:40) 15.8 15.56 (06:10) 9.72 (12:20) 0 0 0 0 0
12-02-2019 18.5 (13:40) 8.2 (05:00) 13.3 17.22 (12:40) 11.11 (12:10) 0 0 0 0 0
11-02-2019 19.6 (16:00) 8.2 (02:50) 13.9 7.5 (14:30) 5.56 (14:30) 0 0 0 0 0
10-02-2019 17.8 (15:30) 6.8 (00:00) 12.3 8.61 (16:40) 6.39 (16:40) 0 0 0 0 0
09-02-2019 18.2 (13:50) 5.2 (00:00) 11.7 7.22 (15:50) 5.83 (16:00) 0.2 0 0.2 0 0
08-02-2019 16.8 (14:50) 5.4 (00:00) 11.1 6.39 (16:50) 5.56 (16:50) 0 0 0 0 0
07-02-2019 17.7 (13:50) 5.7 (00:00) 11.7 8.06 (16:10) 6.39 (16:10) 0 0 0 0 0
06-02-2019 19.3 (14:30) 6 (00:00) 12.6 5.28 (15:00) 4.17 (15:00) 0 0 0 0 0
05-02-2019 19.1 (15:30) 4.1 (00:00) 11.6 5 (14:50) 3.89 (14:50) 0 0 0 0 0
04-02-2019 17.8 (15:50) 2.4 (00:00) 10.1 5.28 (09:20) 3.89 (14:40) 0 0 0 0 0
03-02-2019 14.6 (14:40) 2.2 (00:00) 8.4 7.78 (16:00) 5 (15:40) 0 0 0 0 0
02-02-2019 14.4 (16:20) 9.2 (00:00) 11.8 15.28 (13:20) 10 (14:20) 0 0 0 0 0
01-02-2019 16.2 (15:00) 11.6 (00:00) 13.9 23.61 (08:40) 17.5 (08:40) 11 1.4 9.6 0 0
31-01-2019 16.2 (16:50) 14 (00:00) 15.1 17.5 (23:59) 13.33 (23:20) 3 1.4 0 1.2 0.4
30-01-2019 16.1 (14:20) 12.4 (00:00) 14.3 10.28 (18:40) 6.39 (18:50) 5.8 0 1.6 0.2 4
29-01-2019 16.3 (13:00) 12 (00:00) 14.1 10.56 (12:40) 6.39 (12:20) 0 0 0 0 0
28-01-2019 16.6 (13:30) 7.9 (00:00) 12.3 11.39 (17:00) 7.5 (17:00) 0 0 0 0 0
27-01-2019 16.3 (16:30) 11.7 (00:00) 14 11.94 (14:20) 8.33 (04:40) 0 0 0 0 0
26-01-2019 18.3 (14:20) 7.1 (00:00) 12.7 6.67 (16:40) 5.56 (16:30) 0 0 0 0 0
25-01-2019 20.9 (17:00) 8.4 (00:00) 14.6 5.83 (16:00) 3.89 (16:00) 0 0 0 0 0
24-01-2019 18.8 (16:20) 11.9 (00:00) 15.3 10 (01:50) 6.11 (01:50) 0 0 0 0 0
23-01-2019 15.9 (16:00) 10.7 (00:00) 13.3 13.33 (15:30) 8.61 (15:30) 1.6 1.6 0 0 0
22-01-2019 14.8 (15:10) 4.5 (00:00) 9.7 13.89 (14:50) 8.06 (15:30) 0 0 0 0 0
21-01-2019 16.2 (14:40) 4.8 (00:00) 10.5 7.22 (15:00) 6.11 (15:10) 0 0 0 0 0
20-01-2019 15.9 (15:50) 9.2 (00:00) 12.5 16.67 (00:50) 13.06 (00:10) 3.4 2.4 1 0 0
19-01-2019 15.7 (21:10) 11.5 (00:00) 13.6 15.56 (06:40) 12.5 (06:50) 14 5.4 1 0.4 7.2

Gráficas

Temp. máximas Temp. mínimas Temp. medias Precipitaciones Rachas de viento máximas Velocidades máximas media en intervalos de 10 minutos

Datos horarios

Fecha y hora oficial Temperatura (ºC) Velocidad del viento (km/h) Dirección del viento Racha (km/h) Dirección de racha Precipitación (mm) Presión (hPa) Tendencia (hPa) Humedad (%)
2019-02-17 23:00:00 14.2 11 Este 23 Sudeste 0 -- -- 80
2019-02-17 22:00:00 14.2 14 Sudeste 27 Sudeste 0 -- -- 79
2019-02-17 21:00:00 14.3 11 Sudeste 28 Sudeste 0 -- -- 80
2019-02-17 20:00:00 14.5 8 Sudeste 22 Este 0 -- -- 79
2019-02-17 19:00:00 15.2 17 Este 30 Sudeste 0 -- -- 77
2019-02-17 18:00:00 17 17 Sudeste 36 Sudeste 0 -- -- 71
2019-02-17 17:00:00 18.3 20 Sudeste 34 Sudeste 0 -- -- 67
2019-02-17 16:00:00 19.1 18 Sudeste 33 Sudeste 0 -- -- 65
2019-02-17 15:00:00 19.5 19 Este 36 Este 0 -- -- 62
2019-02-17 14:00:00 19.2 21 Este 35 Sudeste 0 -- -- 65
2019-02-17 13:00:00 18.9 18 Sudeste 35 Sudeste 0 -- -- 63
2019-02-17 12:00:00 18 23 Sudeste 36 Sudeste 0 -- -- 68
2019-02-17 11:00:00 16.9 24 Sudeste 36 Sudeste 0 -- -- 73
2019-02-17 10:00:00 15.8 13 Sudeste 27 Sudeste 0 -- -- 77
2019-02-17 09:00:00 14.1 12 Sudeste 37 Sudeste 0 -- -- 82
2019-02-17 08:00:00 13.5 19 Sur 34 Sur 0 -- -- 84
2019-02-17 07:00:00 13.4 14 Sur 31 Sudeste 0 -- -- 86
2019-02-17 06:00:00 13.4 12 Sudeste 44 Sudeste 0 -- -- 85
2019-02-17 05:00:00 13.6 23 Sudeste 45 Sudeste 0 -- -- 84
2019-02-17 04:00:00 14 21 Sudeste 39 Sudeste 0 -- -- 81
2019-02-17 03:00:00 14 15 Sudeste 42 Sudeste 0 -- -- 81
2019-02-17 02:00:00 14 26 Sudeste 63 Este 0 -- -- 82
2019-02-17 01:00:00 14.2 35 Sudeste 59 Sudeste 0 -- -- 82
2019-02-17 00:00:00 14.2 20 Sudeste 44 Sudeste 0 -- -- 80
2019-02-16 23:00:00 14.2 19 Sudeste 32 Sudeste 0 -- -- 78
2019-02-16 22:00:00 14.2 10 Sudeste 35 Sudeste 0 -- -- 75
2019-02-16 21:00:00 14.3 10 Sur 32 Sudeste 0 -- -- 75
2019-02-16 20:00:00 14.3 17 Este 30 Este 0 -- -- 75
2019-02-16 19:00:00 14.7 16 Este 51 Sudeste 0 -- -- 75
2019-02-16 18:00:00 15.6 30 Este 54 Este 0 -- -- 74
2019-02-16 17:00:00 16.4 25 Este 55 Sudeste 0 -- -- 71
2019-02-16 16:00:00 16.8 27 Este 61 Este 0 -- -- 70
2019-02-16 15:00:00 16.9 34 Este 58 Este 0 -- -- 71
2019-02-16 14:00:00 17.6 35 Este 60 Este 0 -- -- 69
2019-02-16 13:00:00 17.7 40 Este 65 Este 0 -- -- 68
2019-02-16 12:00:00 17.4 33 Este 58 Este 0 -- -- 70
2019-02-16 11:00:00 16.3 35 Este 57 Este 0 -- -- 71
2019-02-16 10:00:00 15.2 31 Este 54 Este 0 -- -- 76
2019-02-16 09:00:00 14.7 18 Este 42 Este 0 -- -- 76
2019-02-16 08:00:00 14.5 19 Este 39 Sudeste 0 -- -- 76
2019-02-16 07:00:00 14.6 16 Este 44 Este 0 -- -- 77
2019-02-16 06:00:00 14.7 22 Sudeste 42 Este 0 -- -- 78
2019-02-16 05:00:00 14.6 24 Sudeste 45 Este 0 -- -- 78
2019-02-16 04:00:00 14.5 17 Sudeste 44 Sudeste 0 -- -- 79
2019-02-16 03:00:00 14.5 24 Sudeste 43 Este 0 -- -- 78
2019-02-16 02:00:00 14.2 17 Sudeste 37 Este 0 -- -- 82
2019-02-16 01:00:00 14.3 14 Sudeste 47 Este 0 -- -- 79
2019-02-16 00:00:00 14.4 18 Este 35 Este 0 -- -- 77
2019-02-15 23:00:00 14.5 10 Nordeste 33 Este 0 -- -- 76
2019-02-15 22:00:00 14.3 17 Este 33 Este 0 -- -- 78
2019-02-15 21:00:00 14.4 14 Nordeste 28 Nordeste 0 -- -- 77
2019-02-15 20:00:00 14.4 15 Norte 30 Este 0 -- -- 79
2019-02-15 19:00:00 14.6 19 Nordeste 41 Este 0 -- -- 78
2019-02-15 18:00:00 15.9 21 Este 49 Este 0 -- -- 75
2019-02-15 17:00:00 16.5 30 Este 56 Este 0 -- -- 72
2019-02-15 16:00:00 17.3 33 Este 59 Este 0 -- -- 71
2019-02-15 15:00:00 17.5 40 Este 67 Este 0 -- -- 71
2019-02-15 14:00:00 17.7 39 Este 67 Este 0 -- -- 72
2019-02-15 13:00:00 17.7 41 Este 65 Este 0 -- -- 72
2019-02-15 12:00:00 17.2 37 Este 65 Este 0 -- -- 73
2019-02-15 11:00:00 16.5 34 Este 62 Este 0 -- -- 75
2019-02-15 10:00:00 15.7 35 Este 58 Este 0 -- -- 73
2019-02-15 09:00:00 14.4 32 Este 60 Este 0 -- -- 77
2019-02-15 08:00:00 14 31 Este 59 Este 0 -- -- 75
2019-02-15 07:00:00 14.1 24 Este 55 Este 0 -- -- 72
2019-02-15 06:00:00 14.2 29 Este 60 Este 0 -- -- 74
2019-02-15 05:00:00 14.2 31 Este 64 Este 0 -- -- 77
2019-02-15 04:00:00 14.3 29 Este 56 Sudeste 0 -- -- 77
2019-02-15 03:00:00 14.5 26 Este 66 Este 0 -- -- 75
2019-02-15 02:00:00 14.3 31 Este 77 Este 0 -- -- 77
2019-02-15 01:00:00 14.5 26 Este 58 Este 0 -- -- 78
2019-02-15 00:00:00 14.1 24 Este 55 Sudeste 0 -- -- 82
2019-02-14 23:00:00 14.1 26 Este 56 Este 0 -- -- 83
2019-02-14 22:00:00 13.9 18 Sudeste 53 Sudeste 0 -- -- 82
2019-02-14 21:00:00 14.2 30 Este 72 Este 0 -- -- 81
2019-02-14 20:00:00 14.3 27 Este 60 Este 0 -- -- 80
2019-02-14 19:00:00 14.6 27 Este 56 Este 0 -- -- 78
2019-02-14 18:00:00 15.8 30 Este 53 Este 0 -- -- 75
2019-02-14 17:00:00 17.1 31 Sudeste 55 Sudeste 0 -- -- 71
2019-02-14 16:00:00 17.9 28 Sudeste 50 Este 0 -- -- 68
2019-02-14 15:00:00 18.1 30 Sudeste 54 Sudeste 0 -- -- 67
2019-02-14 14:00:00 18.3 27 Sudeste 56 Sudeste 0 -- -- 66
2019-02-14 13:00:00 17.6 32 Sudeste 52 Sudeste 0 -- -- 68
2019-02-14 12:00:00 17 30 Sudeste 50 Sudeste 0 -- -- 69
2019-02-14 11:00:00 16.3 25 Sudeste 49 Sudeste 0 -- -- 72
2019-02-14 10:00:00 15.4 20 Sudeste 42 Sudeste 0 -- -- 76
2019-02-14 09:00:00 13.8 18 Sudeste 42 Sudeste 0 -- -- 79
2019-02-14 08:00:00 13.3 17 Sudeste 46 Sudeste 0 -- -- 79
2019-02-14 07:00:00 13.3 8 Sur 36 Sudeste 0 -- -- 79
2019-02-14 06:00:00 13.5 9 Sudeste 34 Sudeste 0 -- -- 81
2019-02-14 05:00:00 13.5 19 Sudeste 41 Sudeste 0 -- -- 80
2019-02-14 04:00:00 13.5 10 Sudeste 49 Sudeste 0 -- -- 81
2019-02-14 03:00:00 13.7 20 Sudeste 44 Sudeste 0 -- -- 79
2019-02-14 02:00:00 13.8 23 Sudeste 45 Sudeste 0 -- -- 82
2019-02-14 01:00:00 13.8 17 Sudeste 37 Sudeste 0 -- -- 81
2019-02-14 00:00:00 13.8 17 Sudeste 41 Sudeste 0 -- -- 81
2019-02-13 23:00:00 13.9 22 Sudeste 46 Sudeste 0 -- -- 81
2019-02-13 22:00:00 13.9 19 Sudeste 37 Sudeste 0 -- -- 81
2019-02-13 21:00:00 13.9 15 Sudeste 42 Sudeste 0 -- -- 80
2019-02-13 20:00:00 14 24 Sudeste 46 Sudeste 0 -- -- 78
2019-02-13 19:00:00 14.5 23 Sudeste 50 Este 0 -- -- 77
2019-02-13 18:00:00 15.8 30 Este 54 Este 0 -- -- 74
2019-02-13 17:00:00 17 30 Este 54 Sudeste 0 -- -- 69
2019-02-13 16:00:00 17.7 28 Sudeste 54 Sudeste 0 -- -- 68
2019-02-13 15:00:00 17.9 29 Sudeste 51 Sudeste 0 -- -- 66
2019-02-13 14:00:00 18 28 Sudeste 52 Este 0 -- -- 68
2019-02-13 13:00:00 17.4 29 Este 52 Este 0 -- -- 71
2019-02-13 12:00:00 16.9 27 Este 48 Este 0 -- -- 73
2019-02-13 11:00:00 16.5 23 Sudeste 45 Sudeste 0 -- -- 74
2019-02-13 10:00:00 15.5 15 Sudeste 32 Sudeste 0 -- -- 76
2019-02-13 09:00:00 13.8 17 Sudeste 41 Este 0 -- -- 80
2019-02-13 08:00:00 13.5 18 Sudeste 45 Este 0 -- -- 80
2019-02-13 07:00:00 13.6 19 Sudeste 56 Este 0 -- -- 82
2019-02-13 06:00:00 13.6 21 Este 45 Este 0 -- -- 82
2019-02-13 05:00:00 13.6 23 Sudeste 50 Sudeste 0 -- -- 82
2019-02-13 04:00:00 13.7 20 Sudeste 47 Sudeste 0 -- -- 82
2019-02-13 03:00:00 13.8 21 Sudeste 51 Este 0 -- -- 81
2019-02-13 02:00:00 13.9 21 Sudeste 50 Sudeste 0 -- -- 80
2019-02-13 01:00:00 14 20 Sudeste 40 Sudeste 0 -- -- 80
2019-02-13 00:00:00 14.1 11 Este 45 Sudeste 0 -- -- 83
2019-02-12 23:00:00 14 14 Este 40 Este 0 -- -- 82
2019-02-12 22:00:00 13.8 14 Nordeste 30 Nordeste 0 -- -- 82
2019-02-12 21:00:00 13.9 13 Nordeste 35 Este 0 -- -- 82
2019-02-12 20:00:00 14.3 22 Este 43 Este 0 -- -- 82
2019-02-12 19:00:00 14.8 23 Este 47 Este 0 -- -- 78
2019-02-12 18:00:00 15.6 20 Este 53 Este 0 -- -- 78
2019-02-12 17:00:00 16.7 29 Este 51 Este 0 -- -- 78
2019-02-12 16:00:00 17.2 39 Este 58 Este 0 -- -- 78
2019-02-12 15:00:00 17.4 36 Este 58 Este 0 -- -- 77
2019-02-12 14:00:00 18.1 39 Este 61 Sudeste 0 -- -- 77
2019-02-12 13:00:00 18.1 35 Sudeste 62 Este 0 -- -- 75
2019-02-12 12:00:00 17.7 35 Este 60 Este 0 -- -- 75
2019-02-12 11:00:00 17 32 Este 56 Este 0 -- -- 76
2019-02-12 10:00:00 16 22 Este 42 Este 0 -- -- 80
2019-02-12 09:00:00 14.2 9 Sudeste 19 Sudeste 0 -- -- 88
2019-02-12 08:00:00 13.6 8 Noroeste 43 Este 0 -- -- 90
2019-02-12 07:00:00 13 14 Nordeste 44 Este 0 -- -- 90
2019-02-12 06:00:00 10.9 16 Nordeste 32 Este 0 -- -- 100
2019-02-12 05:00:00 8.2 11 Nordeste 19 Este 0 -- -- 100
2019-02-12 04:00:00 8.4 8 Norte 15 Norte 0 -- -- 100
2019-02-12 03:00:00 8.5 6 Norte 13 Norte 0 -- -- 100
2019-02-12 02:00:00 8.6 9 Norte 12 Norte 0 -- -- 100
2019-02-12 01:00:00 9.3 6 Norte 12 Nordeste 0 -- -- 100
2019-02-12 00:00:00 9.3 8 Nordeste 9 Nordeste 0 -- -- 98
2019-02-11 23:00:00 11 6 Norte 8 Norte 0 -- -- 97
2019-02-11 22:00:00 11.6 5 Este 8 Este 0 -- -- 95
2019-02-11 21:00:00 13.5 4 Noroeste 12 Oeste 0 -- -- 93
2019-02-11 20:00:00 14 3 Norte 15 Oeste 0 -- -- 91
2019-02-11 19:00:00 15.4 8 Oeste 23 Oeste 0 -- -- 87
2019-02-11 18:00:00 17.2 14 Oeste 24 Oeste 0 -- -- 83
2019-02-11 17:00:00 18.5 16 Oeste 25 Oeste 0 -- -- 79
2019-02-11 16:00:00 19.6 16 Noroeste 24 Noroeste 0 -- -- 74
2019-02-11 15:00:00 17.8 19 Oeste 27 Oeste 0 -- -- 87
2019-02-11 14:00:00 16.8 14 Oeste 23 Oeste 0 -- -- 91
2019-02-11 13:00:00 17.9 9 Sudoeste 14 Oeste 0 -- -- 85
2019-02-11 12:00:00 17.3 5 Oeste 17 Noroeste 0 -- -- 85
2019-02-11 11:00:00 15.3 5 Norte 12 Nordeste 0 -- -- 90
2019-02-11 10:00:00 12.5 6 Norte 10 Norte 0 -- -- 96
2019-02-11 09:00:00 10.9 5 Norte 8 Norte 0 -- -- 98
2019-02-11 08:00:00 10.6 4 Norte 6 Norte 0 -- -- 98
2019-02-11 07:00:00 10.3 5 Norte 8 Nordeste 0 -- -- 98
2019-02-11 06:00:00 10 5 Norte 9 Norte 0 -- -- 99
2019-02-11 05:00:00 9.6 5 Norte 11 Norte 0 -- -- 99
2019-02-11 04:00:00 9 6 Norte 11 Norte 0 -- -- 100
2019-02-11 03:00:00 8.2 7 Norte 10 Norte 0 -- -- 100
2019-02-11 02:00:00 8.4 8 Norte 14 Norte 0 -- -- 99
2019-02-11 01:00:00 9.3 4 Norte 10 Nordeste 0 -- -- 97
2019-02-11 00:00:00 10.4 3 Norte 7 Este 0 -- -- 95
2019-02-10 23:00:00 11.1 6 Nordeste 10 Nordeste 0 -- -- 92
2019-02-10 22:00:00 12.2 8 Nordeste 17 Noroeste 0 -- -- 86
2019-02-10 21:00:00 12.7 13 Noroeste 24 Noroeste 0 -- -- 82
2019-02-10 20:00:00 13.2 10 Norte 23 Noroeste 0 -- -- 78
2019-02-10 19:00:00 14.6 11 Noroeste 24 Oeste 0 -- -- 74
2019-02-10 18:00:00 16.7 17 Noroeste 27 Noroeste 0 -- -- 68
2019-02-10 17:00:00 16.7 19 Noroeste 31 Noroeste 0 -- -- 68
2019-02-10 16:00:00 17.4 19 Noroeste 29 Oeste 0 -- -- 68
2019-02-10 15:00:00 17.7 11 Noroeste 24 Noroeste 0 -- -- 67
2019-02-10 14:00:00 16.8 10 Noroeste 21 Oeste 0 -- -- 70
2019-02-10 13:00:00 16.8 13 Noroeste 29 Oeste 0 -- -- 70
2019-02-10 12:00:00 16 10 Noroeste 22 Oeste 0 -- -- 69
2019-02-10 11:00:00 14.5 8 Norte 15 Noroeste 0 -- -- 84
2019-02-10 10:00:00 10.7 7 Norte 12 Norte 0 -- -- 100
2019-02-10 09:00:00 9.4 6 Norte 13 Norte 0 -- -- 100
2019-02-10 08:00:00 8.8 3 Nordeste 13 Norte 0 -- -- 100
2019-02-10 07:00:00 8.5 6 Norte 13 Norte 0 -- -- 100
2019-02-10 06:00:00 7.9 8 Norte 13 Norte 0 -- -- 100
2019-02-10 05:00:00 7.6 9 Norte 14 Norte 0 -- -- 100
2019-02-10 04:00:00 6.9 9 Norte 14 Norte 0 -- -- 100
2019-02-10 03:00:00 7 8 Norte 12 Nordeste 0 -- -- 100
2019-02-10 02:00:00 7.1 7 Norte 10 Nordeste 0 -- -- 100
2019-02-10 01:00:00 7.8 7 Norte 10 Norte 0 -- -- 100
2019-02-10 00:00:00 8.3 7 Norte 9 Norte 0 -- -- 99
2019-02-09 23:00:00 10.1 7 Norte 9 Norte 0 -- -- 99
2019-02-09 22:00:00 10.5 0 Calma 5 Nordeste 0 -- -- 96
2019-02-09 21:00:00 11.3 3 Nordeste 8 Nordeste 0 -- -- 94
2019-02-09 20:00:00 13.2 4 Oeste 14 Oeste 0 -- -- 87
2019-02-09 19:00:00 14.5 10 Oeste 20 Oeste 0 -- -- 83
2019-02-09 18:00:00 15.7 17 Oeste 22 Oeste 0 -- -- 81
2019-02-09 17:00:00 16.3 19 Oeste 24 Oeste 0 -- -- 79
2019-02-09 16:00:00 16.6 21 Oeste 26 Oeste 0 -- -- 78
2019-02-09 15:00:00 16.6 19 Oeste 22 Oeste 0 -- -- 77
2019-02-09 14:00:00 18 12 Sudoeste 14 Sudoeste 0 -- -- 77
2019-02-09 13:00:00 17.4 7 Sudoeste 11 Sudoeste 0 -- -- 84
2019-02-09 12:00:00 14.6 0 Calma 10 Norte 0 -- -- 100
2019-02-09 11:00:00 10.8 7 Norte 14 Nordeste 0 -- -- 100
2019-02-09 10:00:00 8.6 9 Norte 14 Norte 0 -- -- 100
2019-02-09 09:00:00 5.9 7 Norte 14 Norte 0 -- -- 100
2019-02-09 08:00:00 6 8 Norte 14 Norte 0 -- -- 100
2019-02-09 07:00:00 5.2 11 Norte 15 Norte 0.2 -- -- 100
2019-02-09 06:00:00 5.3 8 Norte 14 Norte 0 -- -- 100
2019-02-09 05:00:00 5.8 8 Norte 13 Norte 0 -- -- 100
2019-02-09 04:00:00 5.9 9 Nordeste 12 Norte 0 -- -- 100
2019-02-09 03:00:00 6 8 Norte 11 Nordeste 0 -- -- 100
2019-02-09 02:00:00 6.5 7 Norte 10 Norte 0 -- -- 100
2019-02-09 01:00:00 7.5 7 Norte 10 Norte 0 -- -- 100
2019-02-09 00:00:00 8.3 8 Norte 10 Norte 0 -- -- 100
2019-02-08 23:00:00 9 8 Norte 9 Norte 0 -- -- 99
2019-02-08 22:00:00 10.5 5 Nordeste 6 Nordeste 0 -- -- 98
2019-02-08 21:00:00 11.9 4 Norte 5 Nordeste 0 -- -- 96
2019-02-08 20:00:00 13 4 Nordeste 12 Oeste 0 -- -- 89
2019-02-08 19:00:00 14.7 9 Oeste 15 Oeste 0 -- -- 85
2019-02-08 18:00:00 16 13 Oeste 22 Oeste 0 -- -- 90
2019-02-08 17:00:00 16.3 18 Oeste 23 Oeste 0 -- -- 89
2019-02-08 16:00:00 16.5 18 Sudoeste 21 Oeste 0 -- -- 89
2019-02-08 15:00:00 16.6 17 Oeste 21 Sudoeste 0 -- -- 89
2019-02-08 14:00:00 15.6 8 Sudoeste 10 Sudoeste 0 -- -- 93
2019-02-08 13:00:00 14.9 6 Sudoeste 9 Sudoeste 0 -- -- 100
2019-02-08 12:00:00 11.6 4 Norte 13 Norte 0 -- -- 100
2019-02-08 11:00:00 8.4 8 Norte 15 Nordeste 0 -- -- 100
2019-02-08 10:00:00 7.2 10 Norte 16 Nordeste 0 -- -- 100
2019-02-08 09:00:00 6.4 9 Norte 16 Nordeste 0 -- -- 100
2019-02-08 08:00:00 6.5 8 Norte 15 Norte 0 -- -- 100
2019-02-08 07:00:00 6.2 10 Nordeste 14 Norte 0 -- -- 100
2019-02-08 06:00:00 5.8 10 Norte 14 Norte 0 -- -- 100
2019-02-08 05:00:00 5.8 8 Norte 14 Norte 0 -- -- 100
2019-02-08 04:00:00 7.3 6 Norte 9 Norte 0 -- -- 100
2019-02-08 03:00:00 7.1 8 Norte 10 Nordeste 0 -- -- 99
2019-02-08 02:00:00 7.3 8 Norte 12 Norte 0 -- -- 97
2019-02-08 01:00:00 8.2 8 Norte 10 Norte 0 -- -- 97
2019-02-08 00:00:00 9.7 8 Norte 10 Norte 0 -- -- 94
2019-02-07 23:00:00 10.7 4 Nordeste 7 Este 0 -- -- 92
2019-02-07 22:00:00 11.1 3 Nordeste 8 Nordeste 0 -- -- 94
2019-02-07 21:00:00 12.3 0 Calma 12 Noroeste 0 -- -- 88
2019-02-07 20:00:00 13.3 4 Este 12 Este 0 -- -- 88
2019-02-07 19:00:00 15.1 3 Nordeste 22 Oeste 0 -- -- 81
2019-02-07 18:00:00 15.5 20 Oeste 26 Oeste 0 -- -- 87
2019-02-07 17:00:00 15.8 19 Oeste 29 Oeste 0 -- -- 85
2019-02-07 16:00:00 16.2 21 Oeste 26 Sudoeste 0 -- -- 86
2019-02-07 15:00:00 17.4 17 Sudoeste 19 Sudoeste 0 -- -- 84
2019-02-07 14:00:00 17.7 10 Sudoeste 13 Sudoeste 0 -- -- 85
2019-02-07 13:00:00 17.2 8 Sudoeste 10 Sur 0 -- -- 87
2019-02-07 12:00:00 12.9 7 Norte 12 Nordeste 0 -- -- 98
2019-02-07 11:00:00 9 9 Nordeste 15 Norte 0 -- -- 100
2019-02-07 10:00:00 6.9 9 Norte 15 Norte 0 -- -- 100
2019-02-07 09:00:00 5.7 8 Norte 12 Norte 0 -- -- 100
2019-02-07 08:00:00 6.1 8 Norte 12 Norte 0 -- -- 100
2019-02-07 07:00:00 6.2 9 Nordeste 10 Norte 0 -- -- 100
2019-02-07 06:00:00 6.7 7 Norte 10 Nordeste 0 -- -- 100
2019-02-07 05:00:00 6.7 6 Norte 9 Norte 0 -- -- 100
2019-02-07 04:00:00 7.2 5 Norte 10 Norte 0 -- -- 100
2019-02-07 03:00:00 7.4 8 Norte 11 Norte 0 -- -- 99
2019-02-07 02:00:00 8.2 8 Norte 11 Norte 0 -- -- 99
2019-02-07 01:00:00 8.4 7 Norte 10 Norte 0 -- -- 98
2019-02-07 00:00:00 8.6 7 Norte 10 Norte 0 -- -- 96
2019-02-06 23:00:00 9.3 8 Norte 10 Norte 0 -- -- 96
2019-02-06 22:00:00 10.3 8 Nordeste 10 Nordeste 0 -- -- 94
2019-02-06 21:00:00 11.6 6 Nordeste 9 Nordeste 0 -- -- 95
2019-02-06 20:00:00 12.7 7 Nordeste 12 Oeste 0 -- -- 89
2019-02-06 19:00:00 15.2 9 Oeste 14 Oeste 0 -- -- 85
2019-02-06 18:00:00 16.9 9 Oeste 15 Sur 0 -- -- 79
2019-02-06 17:00:00 18.5 11 Sur 15 Sur 0 -- -- 75
2019-02-06 16:00:00 18.2 13 Sur 19 Sur 0 -- -- 74
2019-02-06 15:00:00 17.5 15 Sur 19 Sur 0 -- -- 78
2019-02-06 14:00:00 18.8 13 Sur 17 Sur 0 -- -- 77
2019-02-06 13:00:00 18 11 Sudoeste 13 Sudoeste 0 -- -- 73
2019-02-06 12:00:00 16.2 4 Sudoeste 9 Nordeste 0 -- -- 78
2019-02-06 11:00:00 12.6 6 Norte 9 Norte 0 -- -- 91
2019-02-06 10:00:00 9.2 5 Nordeste 13 Norte 0 -- -- 100
2019-02-06 09:00:00 6.3 9 Nordeste 13 Norte 0 -- -- 100
2019-02-06 08:00:00 6.1 8 Nordeste 12 Nordeste 0 -- -- 100
2019-02-06 07:00:00 6 10 Nordeste 12 Nordeste 0 -- -- 100
2019-02-06 06:00:00 6.6 8 Norte 13 Norte 0 -- -- 100
2019-02-06 05:00:00 7.3 7 Norte 14 Nordeste 0 -- -- 100
2019-02-06 04:00:00 6.9 8 Norte 13 Nordeste 0 -- -- 100
2019-02-06 03:00:00 7 8 Nordeste 11 Nordeste 0 -- -- 99
2019-02-06 02:00:00 6.9 8 Nordeste 12 Nordeste 0 -- -- 98
2019-02-06 01:00:00 7.6 8 Norte 13 Norte 0 -- -- 97
2019-02-06 00:00:00 7.7 10 Norte 15 Norte 0 -- -- 95
2019-02-05 23:00:00 8.5 9 Norte 10 Norte 0 -- -- 92
2019-02-05 22:00:00 8.9 6 Norte 9 Norte 0 -- -- 93
2019-02-05 21:00:00 10.8 7 Norte 9 Norte 0 -- -- 88
2019-02-05 20:00:00 12.5 2 Este 6 Oeste 0 -- -- 89
2019-02-05 19:00:00 15 6 Oeste 10 Oeste 0 -- -- 83
2019-02-05 18:00:00 17.3 8 Oeste 10 Sudoeste 0 -- -- 74
2019-02-05 17:00:00 18.4 8 Sudoeste 14 Sur 0 -- -- 75
2019-02-05 16:00:00 18.7 13 Sur 15 Sur 0 -- -- 73
2019-02-05 15:00:00 18.6 12 Sur 18 Sur 0 -- -- 72
2019-02-05 14:00:00 17.8 12 Sudoeste 15 Sudoeste 0 -- -- 68
2019-02-05 13:00:00 16.7 6 Sudoeste 10 Sudoeste 0 -- -- 70
2019-02-05 12:00:00 13.9 5 Norte 9 Nordeste 0 -- -- 76
2019-02-05 11:00:00 10.5 7 Nordeste 12 Norte 0 -- -- 92
2019-02-05 10:00:00 7.3 8 Nordeste 12 Nordeste 0 -- -- 100
2019-02-05 09:00:00 5.2 7 Norte 11 Nordeste 0 -- -- 100
2019-02-05 08:00:00 4.2 8 Nordeste 12 Nordeste 0 -- -- 100
2019-02-05 07:00:00 4.5 10 Nordeste 14 Nordeste 0 -- -- 100
2019-02-05 06:00:00 4.9 7 Norte 12 Nordeste 0 -- -- 100
2019-02-05 05:00:00 4.8 10 Nordeste 15 Nordeste 0 -- -- 100
2019-02-05 04:00:00 5.2 11 Nordeste 13 Nordeste 0 -- -- 99
2019-02-05 03:00:00 5.2 10 Nordeste 13 Nordeste 0 -- -- 100
2019-02-05 02:00:00 5.2 6 Nordeste 14 Norte 0 -- -- 99
2019-02-05 01:00:00 5.1 8 Nordeste 11 Nordeste 0 -- -- 96
2019-02-05 00:00:00 6.7 7 Norte 10 Nordeste 0 -- -- 96
2019-02-04 23:00:00 7 7 Norte 13 Nordeste 0 -- -- 95
2019-02-04 22:00:00 7.6 8 Norte 12 Norte 0 -- -- 92
2019-02-04 21:00:00 8.7 7 Norte 10 Nordeste 0 -- -- 90
2019-02-04 20:00:00 10.5 6 Norte 9 Norte 0 -- -- 82
2019-02-04 19:00:00 14.1 4 Noroeste 11 Oeste 0 -- -- 65
2019-02-04 18:00:00 15.5 10 Oeste 17 Oeste 0 -- -- 65
2019-02-04 17:00:00 15.8 13 Oeste 17 Oeste 0 -- -- 64
2019-02-04 16:00:00 17.8 7 Sudoeste 14 Sur 0 -- -- 58
2019-02-04 15:00:00 17.2 13 Sur 18 Sur 0 -- -- 60
2019-02-04 14:00:00 16 7 Nordeste 14 Nordeste 0 -- -- 50
2019-02-04 13:00:00 13.9 4 Norte 13 Norte 0 -- -- 56
2019-02-04 12:00:00 11 7 Nordeste 15 Nordeste 0 -- -- 74
2019-02-04 11:00:00 7.7 10 Norte 18 Norte 0 -- -- 85
2019-02-04 10:00:00 5 10 Norte 19 Norte 0 -- -- 94
2019-02-04 09:00:00 3 10 Norte 17 Norte 0 -- -- 98
2019-02-04 08:00:00 2.9 10 Norte 18 Norte 0 -- -- 98
2019-02-04 07:00:00 2.9 8 Norte 16 Norte 0 -- -- 97
2019-02-04 06:00:00 3 11 Norte 18 Norte 0 -- -- 96
2019-02-04 05:00:00 3.3 10 Norte 14 Norte 0 -- -- 96
2019-02-04 04:00:00 4.5 8 Norte 14 Norte 0 -- -- 95
2019-02-04 03:00:00 4.4 8 Norte 14 Nordeste 0 -- -- 94
2019-02-04 02:00:00 5.2 10 Nordeste 16 Nordeste 0 -- -- 89
2019-02-04 01:00:00 5.1 9 Nordeste 12 Norte 0 -- -- 89
2019-02-04 00:00:00 5.3 8 Norte 15 Norte 0 -- -- 86
2019-02-03 23:00:00 6.5 5 Norte 17 Norte 0 -- -- 83
2019-02-03 22:00:00 7.1 9 Norte 15 Nordeste 0 -- -- 82
2019-02-03 21:00:00 7.8 6 Nordeste 17 Noroeste 0 -- -- 81
2019-02-03 20:00:00 10.2 9 Norte 24 Noroeste 0 -- -- 70
2019-02-03 19:00:00 10.6 14 Noroeste 24 Noroeste 0 -- -- 70
2019-02-03 18:00:00 12.7 17 Noroeste 26 Oeste 0 -- -- 63
2019-02-03 17:00:00 13.8 17 Noroeste 25 Oeste 0 -- -- 62
2019-02-03 16:00:00 13.9 18 Noroeste 28 Noroeste 0 -- -- 59
2019-02-03 15:00:00 14.1 14 Noroeste 23 Noroeste 0 -- -- 48
2019-02-03 14:00:00 13.6 12 Norte 23 Norte 0 -- -- 52
2019-02-03 13:00:00 12.4 9 Norte 17 Norte 0 -- -- 59
2019-02-03 12:00:00 10.9 10 Norte 19 Norte 0 -- -- 62
2019-02-03 11:00:00 7.9 5 Norte 10 Norte 0 -- -- 85
2019-02-03 10:00:00 4.8 6 Norte 12 Norte 0 -- -- 99
2019-02-03 09:00:00 2.5 7 Norte 12 Nordeste 0 -- -- 98
2019-02-03 08:00:00 2.3 8 Norte 12 Norte 0 -- -- 97
2019-02-03 07:00:00 3.2 7 Norte 12 Norte 0 -- -- 95
2019-02-03 06:00:00 3.8 7 Norte 12 Nordeste 0 -- -- 94
2019-02-03 05:00:00 4.3 8 Norte 10 Norte 0 -- -- 92
2019-02-03 04:00:00 5.1 7 Norte 10 Norte 0 -- -- 87
2019-02-03 03:00:00 5.9 5 Norte 13 Este 0 -- -- 88
2019-02-03 02:00:00 6.9 8 Nordeste 16 Norte 0 -- -- 76
2019-02-03 01:00:00 7.3 6 Nordeste 13 Este 0 -- -- 76
2019-02-03 00:00:00 9.2 7 Norte 25 Norte 0 -- -- 64
2019-02-02 23:00:00 10.1 16 Noroeste 27 Norte 0 -- -- 59
2019-02-02 22:00:00 10.1 9 Norte 18 Noroeste 0 -- -- 60
2019-02-02 21:00:00 10.7 13 Noroeste 23 Noroeste 0 -- -- 58
2019-02-02 20:00:00 11.5 15 Noroeste 29 Noroeste 0 -- -- 57
2019-02-02 19:00:00 12.1 20 Noroeste 38 Noroeste 0 -- -- 56
2019-02-02 18:00:00 13.4 22 Noroeste 55 Noroeste 0 -- -- 54
2019-02-02 17:00:00 14 32 Noroeste 53 Noroeste 0 -- -- 57
2019-02-02 16:00:00 14.1 35 Noroeste 52 Noroeste 0 -- -- 54
2019-02-02 15:00:00 13.9 32 Noroeste 55 Noroeste 0 -- -- 54
2019-02-02 14:00:00 13.8 32 Noroeste 55 Noroeste 0 -- -- 58
2019-02-02 13:00:00 13.6 29 Noroeste 55 Noroeste 0 -- -- 62
2019-02-02 12:00:00 13.1 29 Noroeste 48 Noroeste 0 -- -- 61
2019-02-02 11:00:00 12.6 27 Noroeste 50 Noroeste 0 -- -- 64
2019-02-02 10:00:00 12 26 Noroeste 40 Noroeste 0 -- -- 72
2019-02-02 09:00:00 11.2 18 Noroeste 38 Noroeste 0 -- -- 77
2019-02-02 08:00:00 11.4 19 Noroeste 36 Noroeste 0 -- -- 73
2019-02-02 07:00:00 11.9 20 Noroeste 42 Noroeste 0 -- -- 75
2019-02-02 06:00:00 11.7 18 Noroeste 33 Noroeste 0 -- -- 76
2019-02-02 05:00:00 12.1 19 Noroeste 33 Noroeste 0 -- -- 75
2019-02-02 04:00:00 12.5 18 Noroeste 32 Noroeste 0 -- -- 75
2019-02-02 03:00:00 11.8 13 Noroeste 27 Noroeste 0 -- -- 77
2019-02-02 02:00:00 11.8 14 Noroeste 23 Noroeste 0 -- -- 78
2019-02-02 01:00:00 11.3 10 Noroeste 30 Noroeste 0 -- -- 76
2019-02-02 00:00:00 11.6 18 Noroeste 47 Noroeste 0 -- -- 73
2019-02-01 23:00:00 12.7 23 Noroeste 42 Noroeste 0 -- -- 75
2019-02-01 22:00:00 12.9 23 Noroeste 40 Noroeste 0 -- -- 80
2019-02-01 21:00:00 13.4 26 Noroeste 44 Noroeste 0 -- -- 75
2019-02-01 20:00:00 14.2 31 Oeste 57 Noroeste 0 -- -- 75
2019-02-01 19:00:00 14.3 31 Noroeste 52 Oeste 0 -- -- 74
2019-02-01 18:00:00 14.8 30 Oeste 50 Oeste 0 -- -- 73
2019-02-01 17:00:00 15.8 31 Noroeste 54 Noroeste 0 -- -- 69
2019-02-01 16:00:00 16.2 25 Noroeste 54 Noroeste 0 -- -- 69
2019-02-01 15:00:00 16.2 29 Noroeste 49 Noroeste 0 -- -- 73
2019-02-01 14:00:00 15.3 32 Noroeste 50 Oeste 0 -- -- 74
2019-02-01 13:00:00 14.6 26 Noroeste 49 Noroeste 0 -- -- 83
2019-02-01 12:00:00 15.5 27 Noroeste 44 Noroeste 0 -- -- 78
2019-02-01 11:00:00 14.4 19 Noroeste 40 Noroeste 0 -- -- 90
2019-02-01 10:00:00 13.2 14 Noroeste 55 Noroeste 1.2 -- -- 100
2019-02-01 09:00:00 13.5 41 Noroeste 85 Oeste 4.6 -- -- 100
2019-02-01 08:00:00 15 55 Sudoeste 81 Sudoeste 1.8 -- -- 100
2019-02-01 07:00:00 15.2 52 Oeste 72 Oeste 2 -- -- 100
2019-02-01 06:00:00 15.7 54 Sudoeste 68 Sudoeste 0 -- -- 97
2019-02-01 05:00:00 15.1 63 Sudoeste 84 Sudoeste 1 -- -- 100
2019-02-01 04:00:00 15.2 50 Sudoeste 65 Sudoeste 0 -- -- 100
2019-02-01 03:00:00 15.1 49 Sudoeste 68 Sudoeste 0.4 -- -- 100
2019-02-01 02:00:00 15.6 47 Sudoeste 64 Sudoeste 0 -- -- 96
2019-02-01 01:00:00 15.6 47 Sudoeste 65 Sudoeste 0 -- -- 95
2019-02-01 00:00:00 15.2 48 Sudoeste 63 Sudoeste 0.2 -- -- 99
2019-01-31 23:00:00 14.5 45 Sudoeste 60 Oeste 0.2 -- -- 100
2019-01-31 22:00:00 15.7 37 Sudoeste 46 Sudoeste 0 -- -- 91
2019-01-31 21:00:00 15.7 36 Sudoeste 45 Sudoeste 0 -- -- 92
2019-01-31 20:00:00 15.7 39 Sudoeste 49 Sudoeste 0 -- -- 91
2019-01-31 19:00:00 15.6 34 Sudoeste 50 Sudoeste 0 -- -- 91
2019-01-31 18:00:00 15.8 35 Sudoeste 44 Sudoeste 0 -- -- 91
2019-01-31 17:00:00 15.9 36 Oeste 45 Oeste 0 -- -- 89
2019-01-31 16:00:00 15.4 27 Oeste 41 Oeste 1.2 -- -- 98
2019-01-31 15:00:00 15.2 27 Oeste 44 Sudoeste 0 -- -- 92
2019-01-31 14:00:00 15.5 31 Oeste 50 Oeste 0 -- -- 92
2019-01-31 13:00:00 15.6 24 Oeste 40 Oeste 0 -- -- 92
2019-01-31 12:00:00 15.1 17 Noroeste 32 Oeste 0 -- -- 93
2019-01-31 11:00:00 14.5 21 Noroeste 43 Noroeste 0 -- -- 97
2019-01-31 10:00:00 15 21 Oeste 36 Oeste 0 -- -- 95
2019-01-31 09:00:00 15.1 28 Oeste 44 Oeste 0 -- -- 96
2019-01-31 08:00:00 15 27 Oeste 35 Oeste 0 -- -- 97
2019-01-31 07:00:00 14.8 23 Oeste 32 Oeste 0 -- -- 99
2019-01-31 06:00:00 14 21 Oeste 39 Oeste 1 -- -- 99
2019-01-31 05:00:00 14.9 22 Oeste 36 Oeste 0.2 -- -- 95
2019-01-31 04:00:00 14.9 19 Oeste 31 Oeste 0 -- -- 95
2019-01-31 03:00:00 14.8 19 Oeste 35 Oeste 0.2 -- -- 95
2019-01-31 02:00:00 14.8 17 Oeste 26 Oeste 0 -- -- 95
2019-01-31 01:00:00 14.8 18 Oeste 26 Oeste 0 -- -- 95
2019-01-31 00:00:00 14.4 13 Oeste 28 Oeste 0.4 -- -- 98
2019-01-30 23:00:00 14.2 21 Oeste 30 Oeste 0 -- -- 97
2019-01-30 22:00:00 14.1 14 Oeste 26 Oeste 0.6 -- -- 100
2019-01-30 21:00:00 13.9 14 Oeste 27 Noroeste 1.4 -- -- 100
2019-01-30 20:00:00 13.8 14 Noroeste 29 Noroeste 0.6 -- -- 100
2019-01-30 19:00:00 13.9 18 Oeste 37 Oeste 1 -- -- 99
2019-01-30 18:00:00 14.6 13 Oeste 20 Oeste 0.2 -- -- 97
2019-01-30 17:00:00 15.2 9 Oeste 17 Oeste 0 -- -- 93
2019-01-30 16:00:00 15 15 Oeste 22 Noroeste 0 -- -- 93
2019-01-30 15:00:00 15.8 16 Noroeste 29 Noroeste 0 -- -- 86
2019-01-30 14:00:00 16 18 Noroeste 30 Oeste 0 -- -- 85
2019-01-30 13:00:00 15.9 15 Noroeste 30 Noroeste 0 -- -- 86
2019-01-30 12:00:00 15 15 Noroeste 24 Noroeste 0 -- -- 90
2019-01-30 11:00:00 14.2 10 Noroeste 26 Oeste 0.2 -- -- 99
2019-01-30 10:00:00 13.7 18 Noroeste 28 Oeste 1.2 -- -- 98
2019-01-30 09:00:00 13.8 16 Noroeste 29 Noroeste 0.2 -- -- 96
2019-01-30 08:00:00 13.8 16 Oeste 26 Oeste 0 -- -- 94
2019-01-30 07:00:00 13.7 14 Oeste 21 Oeste 0 -- -- 94
2019-01-30 06:00:00 13.3 12 Oeste 22 Noroeste 0 -- -- 94
2019-01-30 05:00:00 13.3 13 Oeste 21 Oeste 0 -- -- 91
2019-01-30 04:00:00 13 12 Noroeste 18 Oeste 0 -- -- 91
2019-01-30 03:00:00 12.7 10 Noroeste 18 Noroeste 0 -- -- 89
2019-01-30 02:00:00 12.5 10 Noroeste 16 Noroeste 0 -- -- 90
2019-01-30 01:00:00 13.1 11 Noroeste 18 Noroeste 0 -- -- 88
2019-01-30 00:00:00 14 10 Noroeste 22 Noroeste 0 -- -- 81
2019-01-29 23:00:00 14.6 13 Noroeste 23 Oeste 0 -- -- 88
2019-01-29 22:00:00 14.7 14 Oeste 26 Noroeste 0 -- -- 90
2019-01-29 21:00:00 14.8 15 Oeste 27 Oeste 0 -- -- 89
2019-01-29 20:00:00 14.4 14 Oeste 25 Oeste 0 -- -- 88
2019-01-29 19:00:00 14.7 17 Oeste 28 Oeste 0 -- -- 87
2019-01-29 18:00:00 15.1 18 Oeste 27 Oeste 0 -- -- 82
2019-01-29 17:00:00 14.6 15 Oeste 30 Oeste 0 -- -- 89
2019-01-29 16:00:00 14.4 11 Oeste 29 Noroeste 0 -- -- 86
2019-01-29 15:00:00 15 15 Noroeste 32 Noroeste 0 -- -- 78
2019-01-29 14:00:00 16 22 Noroeste 36 Noroeste 0 -- -- 73
2019-01-29 13:00:00 16.3 21 Noroeste 38 Noroeste 0 -- -- 71
2019-01-29 12:00:00 15.5 19 Noroeste 35 Noroeste 0 -- -- 73
2019-01-29 11:00:00 13.8 20 Noroeste 36 Noroeste 0 -- -- 78
2019-01-29 10:00:00 13.1 5 Norte 21 Norte 0 -- -- 82
2019-01-29 09:00:00 12.1 9 Norte 24 Norte 0 -- -- 88
2019-01-29 08:00:00 13.1 12 Noroeste 20 Noroeste 0 -- -- 86
2019-01-29 07:00:00 12.9 8 Noroeste 20 Noroeste 0 -- -- 88
2019-01-29 06:00:00 12.6 9 Noroeste 22 Noroeste 0 -- -- 89
2019-01-29 05:00:00 12.4 10 Norte 19 Norte 0 -- -- 91
2019-01-29 04:00:00 12.1 12 Noroeste 16 Noroeste 0 -- -- 91
2019-01-29 03:00:00 12.3 8 Noroeste 16 Noroeste 0 -- -- 90
2019-01-29 02:00:00 12.6 13 Noroeste 21 Noroeste 0 -- -- 89
2019-01-29 01:00:00 12.6 10 Noroeste 19 Noroeste 0 -- -- 89
2019-01-29 00:00:00 12.9 13 Noroeste 21 Oeste 0 -- -- 88
2019-01-28 23:00:00 13.3 12 Oeste 23 Noroeste 0 -- -- 85
2019-01-28 22:00:00 13.3 12 Noroeste 23 Noroeste 0 -- -- 83
2019-01-28 21:00:00 13.2 14 Noroeste 22 Noroeste 0 -- -- 80
2019-01-28 20:00:00 13.9 10 Noroeste 26 Noroeste 0 -- -- 80
2019-01-28 19:00:00 14.2 12 Noroeste 36 Oeste 0 -- -- 80
2019-01-28 18:00:00 14.7 23 Noroeste 41 Oeste 0 -- -- 76
2019-01-28 17:00:00 15 27 Noroeste 41 Noroeste 0 -- -- 74
2019-01-28 16:00:00 15.3 21 Noroeste 35 Oeste 0 -- -- 71
2019-01-28 15:00:00 15.3 23 Noroeste 35 Noroeste 0 -- -- 67
2019-01-28 14:00:00 15.9 18 Noroeste 27 Noroeste 0 -- -- 65
2019-01-28 13:00:00 15.9 9 Sur 15 Sur 0 -- -- 67
2019-01-28 12:00:00 13.6 6 Oeste 19 Norte 0 -- -- 70
2019-01-28 11:00:00 11.2 5 Norte 12 Norte 0 -- -- 82
2019-01-28 10:00:00 9.7 5 Nordeste 12 Nordeste 0 -- -- 88
2019-01-28 09:00:00 7.9 3 Este 14 Sudeste 0 -- -- 95
2019-01-28 08:00:00 8 11 Sudeste 15 Sudeste 0 -- -- 96
2019-01-28 07:00:00 8.8 8 Norte 20 Norte 0 -- -- 92
2019-01-28 06:00:00 9.7 11 Norte 25 Norte 0 -- -- 89
2019-01-28 05:00:00 9.7 6 Norte 17 Norte 0 -- -- 88
2019-01-28 04:00:00 9 6 Nordeste 21 Noroeste 0 -- -- 87
2019-01-28 03:00:00 10.4 12 Norte 23 Noroeste 0 -- -- 80
2019-01-28 02:00:00 11.2 15 Noroeste 23 Noroeste 0 -- -- 77
2019-01-28 01:00:00 11.7 17 Noroeste 26 Noroeste 0 -- -- 75
2019-01-28 00:00:00 11.8 14 Noroeste 21 Noroeste 0 -- -- 76
2019-01-27 23:00:00 12 14 Noroeste 24 Noroeste 0 -- -- 74
2019-01-27 22:00:00 12.3 14 Noroeste 22 Noroeste 0 -- -- 73
2019-01-27 21:00:00 12.2 15 Noroeste 21 Noroeste 0 -- -- 75
2019-01-27 20:00:00 12.8 12 Noroeste 27 Noroeste 0 -- -- 74
2019-01-27 19:00:00 13.7 16 Noroeste 30 Noroeste 0 -- -- 71
2019-01-27 18:00:00 14.4 17 Noroeste 40 Noroeste 0 -- -- 73
2019-01-27 17:00:00 15.9 24 Noroeste 42 Noroeste 0 -- -- 68
2019-01-27 16:00:00 15.8 21 Noroeste 32 Noroeste 0 -- -- 74
2019-01-27 15:00:00 15 19 Noroeste 43 Noroeste 0 -- -- 78
2019-01-27 14:00:00 14.9 16 Noroeste 36 Noroeste 0 -- -- 78
2019-01-27 13:00:00 14.7 17 Noroeste 29 Noroeste 0 -- -- 83
2019-01-27 12:00:00 14.2 21 Noroeste 30 Noroeste 0 -- -- 87
2019-01-27 11:00:00 15.1 17 Noroeste 25 Noroeste 0 -- -- 88
2019-01-27 10:00:00 14.7 12 Noroeste 20 Oeste 0 -- -- 88
2019-01-27 09:00:00 13.5 6 Oeste 25 Oeste 0 -- -- 92
2019-01-27 08:00:00 15.1 15 Oeste 26 Oeste 0 -- -- 95
2019-01-27 07:00:00 14.9 13 Oeste 29 Oeste 0 -- -- 94
2019-01-27 06:00:00 14.9 20 Oeste 34 Oeste 0 -- -- 93
2019-01-27 05:00:00 14.7 27 Oeste 38 Sudoeste 0 -- -- 95
2019-01-27 04:00:00 14.6 26 Sudoeste 30 Sudoeste 0 -- -- 95
2019-01-27 03:00:00 14.8 21 Sudoeste 26 Sudoeste 0 -- -- 91
2019-01-27 02:00:00 14.8 15 Sudoeste 22 Sudoeste 0 -- -- 89
2019-01-27 01:00:00 14.5 10 Sudoeste 19 Sudoeste 0 -- -- 89
2019-01-27 00:00:00 14.4 10 Sudoeste 17 Sudoeste 0 -- -- 90
2019-01-26 23:00:00 14.1 11 Oeste 17 Oeste 0 -- -- 92
2019-01-26 22:00:00 14.2 10 Sudoeste 17 Sudoeste 0 -- -- 92
2019-01-26 21:00:00 14.3 8 Sudoeste 14 Sur 0 -- -- 92
2019-01-26 20:00:00 14.4 9 Sudoeste 15 Sudoeste 0 -- -- 93
2019-01-26 19:00:00 14.7 10 Sudoeste 17 Sudoeste 0 -- -- 93
2019-01-26 18:00:00 15.7 16 Oeste 22 Oeste 0 -- -- 89
2019-01-26 17:00:00 16.2 19 Oeste 24 Oeste 0 -- -- 88
2019-01-26 16:00:00 16.5 20 Sudoeste 23 Sudoeste 0 -- -- 87
2019-01-26 15:00:00 17.4 13 Sudoeste 15 Sudoeste 0 -- -- 82
2019-01-26 14:00:00 17.9 6 Sudoeste 10 Sudoeste 0 -- -- 80
2019-01-26 13:00:00 17.6 7 Sudoeste 10 Sudoeste 0 -- -- 84
2019-01-26 12:00:00 13.9 0 Calma 10 Nordeste 0 -- -- 98
2019-01-26 11:00:00 11.1 7 Norte 11 Norte 0 -- -- 99
2019-01-26 10:00:00 9.6 6 Norte 13 Norte 0 -- -- 100
2019-01-26 09:00:00 9.5 7 Norte 12 Norte 0 -- -- 98
2019-01-26 08:00:00 9.5 7 Norte 10 Norte 0 -- -- 99
2019-01-26 07:00:00 8.8 6 Nordeste 11 Norte 0 -- -- 100
2019-01-26 06:00:00 8.2 8 Norte 13 Norte 0 -- -- 100
2019-01-26 05:00:00 7.3 9 Nordeste 14 Nordeste 0 -- -- 100
2019-01-26 04:00:00 7.4 8 Nordeste 14 Norte 0 -- -- 98
2019-01-26 03:00:00 8.6 10 Nordeste 15 Nordeste 0 -- -- 99
2019-01-26 02:00:00 9.6 10 Norte 13 Norte 0 -- -- 98
2019-01-26 01:00:00 10.1 6 Nordeste 17 Nordeste 0 -- -- 97
2019-01-26 00:00:00 10.4 8 Nordeste 18 Nordeste 0 -- -- 91
2019-01-25 23:00:00 10.9 9 Norte 12 Norte 0 -- -- 94
2019-01-25 22:00:00 11.9 5 Nordeste 12 Nordeste 0 -- -- 98
2019-01-25 21:00:00 13.9 0 Calma 5 Nordeste 0 -- -- 99
2019-01-25 20:00:00 14.3 2 Sudoeste 12 Sudeste 0 -- -- 97
2019-01-25 19:00:00 15.4 12 Sudeste 19 Sur 0 -- -- 94
2019-01-25 18:00:00 20.3 5 Nordeste 15 Noroeste 0 -- -- 68
2019-01-25 17:00:00 20.9 8 Noroeste 16 Sudoeste 0 -- -- 69
2019-01-25 16:00:00 18.3 14 Oeste 21 Oeste 0 -- -- 84
2019-01-25 15:00:00 17.4 14 Oeste 18 Oeste 0 -- -- 87
2019-01-25 14:00:00 17.4 9 Nordeste 14 Nordeste 0 -- -- 88
2019-01-25 13:00:00 14.6 6 Norte 15 Nordeste 0 -- -- 100
2019-01-25 12:00:00 12.9 10 Nordeste 15 Nordeste 0 -- -- 100
2019-01-25 11:00:00 12.4 9 Nordeste 12 Nordeste 0 -- -- 100
2019-01-25 10:00:00 11.5 5 Norte 10 Norte 0 -- -- 100
2019-01-25 09:00:00 10 7 Nordeste 12 Nordeste 0 -- -- 100
2019-01-25 08:00:00 9.6 6 Norte 14 Norte 0 -- -- 100
2019-01-25 07:00:00 8.9 8 Norte 15 Norte 0 -- -- 100
2019-01-25 06:00:00 8.8 9 Norte 15 Norte 0 -- -- 100
2019-01-25 05:00:00 8.8 8 Norte 13 Norte 0 -- -- 100
2019-01-25 04:00:00 8.7 7 Nordeste 12 Nordeste 0 -- -- 100
2019-01-25 03:00:00 9 8 Nordeste 13 Norte 0 -- -- 100
2019-01-25 02:00:00 9.5 8 Norte 12 Norte 0 -- -- 100
2019-01-25 01:00:00 10.2 6 Norte 10 Norte 0 -- -- 99
2019-01-25 00:00:00 11.9 3 Noroeste 5 Noroeste 0 -- -- 98
2019-01-24 23:00:00 13 0 Calma 4 Este 0 -- -- 97
2019-01-24 22:00:00 13.9 0 Calma 9 Oeste 0 -- -- 95
2019-01-24 21:00:00 14.5 7 Sudoeste 14 Sudoeste 0 -- -- 92
2019-01-24 20:00:00 14.7 2 Sur 17 Noroeste 0 -- -- 82
2019-01-24 19:00:00 15.5 11 Noroeste 19 Noroeste 0 -- -- 77
2019-01-24 18:00:00 17.5 14 Noroeste 21 Noroeste 0 -- -- 72
2019-01-24 17:00:00 18.3 15 Noroeste 20 Oeste 0 -- -- 68
2019-01-24 16:00:00 18.3 13 Noroeste 21 Oeste 0 -- -- 73
2019-01-24 15:00:00 17.1 9 Norte 18 Noroeste 0 -- -- 71
2019-01-24 14:00:00 17.5 13 Noroeste 20 Norte 0 -- -- 69
2019-01-24 13:00:00 17.4 12 Norte 24 Noroeste 0 -- -- 73
2019-01-24 12:00:00 16.3 12 Noroeste 25 Noroeste 0 -- -- 80
2019-01-24 11:00:00 15.4 14 Noroeste 28 Noroeste 0 -- -- 83
2019-01-24 10:00:00 14 14 Noroeste 27 Noroeste 0 -- -- 89
2019-01-24 09:00:00 12.9 9 Noroeste 29 Noroeste 0 -- -- 91
2019-01-24 08:00:00 13.2 18 Noroeste 27 Noroeste 0 -- -- 89
2019-01-24 07:00:00 13.4 13 Noroeste 31 Noroeste 0 -- -- 88
2019-01-24 06:00:00 13.8 17 Noroeste 32 Noroeste 0 -- -- 87
2019-01-24 05:00:00 14.2 20 Noroeste 33 Noroeste 0 -- -- 85
2019-01-24 04:00:00 14.5 16 Noroeste 31 Noroeste 0 -- -- 86
2019-01-24 03:00:00 14.5 19 Noroeste 33 Oeste 0 -- -- 86
2019-01-24 02:00:00 14.5 22 Noroeste 36 Noroeste 0 -- -- 85
2019-01-24 01:00:00 14.2 14 Noroeste 33 Noroeste 0 -- -- 84
2019-01-24 00:00:00 14.3 18 Noroeste 33 Noroeste 0 -- -- 86
2019-01-23 23:00:00 14.5 18 Noroeste 36 Oeste 0 -- -- 82
2019-01-23 22:00:00 15.1 22 Noroeste 33 Noroeste 0 -- -- 83
2019-01-23 21:00:00 15.3 19 Noroeste 29 Noroeste 0 -- -- 76
2019-01-23 20:00:00 15 18 Oeste 27 Oeste 0 -- -- 80
2019-01-23 19:00:00 15 17 Noroeste 29 Oeste 0 -- -- 80
2019-01-23 18:00:00 14.8 16 Noroeste 30 Noroeste 0 -- -- 80
2019-01-23 17:00:00 14.8 18 Noroeste 45 Noroeste 0 -- -- 79
2019-01-23 16:00:00 15.9 27 Noroeste 48 Noroeste 0 -- -- 73
2019-01-23 15:00:00 15.8 31 Noroeste 45 Noroeste 0 -- -- 73
2019-01-23 14:00:00 15.2 25 Noroeste 47 Noroeste 0 -- -- 75
2019-01-23 13:00:00 15.3 25 Noroeste 41 Oeste 0 -- -- 75
2019-01-23 12:00:00 14.4 20 Noroeste 37 Noroeste 0 -- -- 81
2019-01-23 11:00:00 13.1 13 Noroeste 23 Noroeste 0 -- -- 86
2019-01-23 10:00:00 11.9 11 Noroeste 24 Noroeste 0 -- -- 88
2019-01-23 09:00:00 10.8 13 Noroeste 23 Noroeste 0 -- -- 91
2019-01-23 08:00:00 10.8 11 Noroeste 25 Norte 0 -- -- 88
2019-01-23 07:00:00 10.9 10 Noroeste 27 Noroeste 0 -- -- 88
2019-01-23 06:00:00 11.3 14 Noroeste 27 Norte 0 -- -- 88
2019-01-23 05:00:00 11.3 16 Noroeste 26 Noroeste 0 -- -- 86
2019-01-23 04:00:00 11.6 10 Norte 28 Noroeste 0.2 -- -- 89
2019-01-23 03:00:00 12.4 24 Noroeste 41 Norte 0.8 -- -- 96
2019-01-23 02:00:00 13.1 19 Noroeste 31 Noroeste 0.6 -- -- 96
2019-01-23 01:00:00 12.8 15 Oeste 29 Noroeste 0.2 -- -- 92
2019-01-23 00:00:00 13.7 18 Noroeste 31 Noroeste 0 -- -- 82
2019-01-22 23:00:00 13.4 19 Oeste 32 Oeste 0 -- -- 83
2019-01-22 22:00:00 12.7 8 Noroeste 15 Oeste 0 -- -- 78
2019-01-22 21:00:00 12.9 14 Noroeste 22 Noroeste 0 -- -- 76
2019-01-22 20:00:00 13 14 Noroeste 28 Noroeste 0 -- -- 73
2019-01-22 19:00:00 12.9 15 Noroeste 29 Noroeste 0 -- -- 75
2019-01-22 18:00:00 13.1 18 Noroeste 32 Noroeste 0 -- -- 74
2019-01-22 17:00:00 13.2 18 Noroeste 40 Noroeste 0 -- -- 73
2019-01-22 16:00:00 13.6 22 Noroeste 46 Noroeste 0 -- -- 65
2019-01-22 15:00:00 14.4 28 Noroeste 50 Oeste 0 -- -- 70
2019-01-22 14:00:00 14 25 Noroeste 42 Noroeste 0 -- -- 72
2019-01-22 13:00:00 13.6 24 Noroeste 34 Noroeste 0 -- -- 77
2019-01-22 12:00:00 12.4 15 Noroeste 24 Oeste 0 -- -- 90
2019-01-22 11:00:00 7.7 9 Norte 13 Nordeste 0 -- -- 100
2019-01-22 10:00:00 5.1 5 Norte 16 Nordeste 0 -- -- 100
2019-01-22 09:00:00 4.9 8 Norte 13 Norte 0 -- -- 100
2019-01-22 08:00:00 4.5 8 Nordeste 13 Nordeste 0 -- -- 100
2019-01-22 07:00:00 4.9 10 Nordeste 13 Norte 0 -- -- 100
2019-01-22 06:00:00 5.1 8 Norte 15 Norte 0 -- -- 100
2019-01-22 05:00:00 5.5 8 Norte 14 Norte 0 -- -- 100
2019-01-22 04:00:00 5.5 7 Norte 12 Nordeste 0 -- -- 100
2019-01-22 03:00:00 6.2 8 Norte 12 Nordeste 0 -- -- 100
2019-01-22 02:00:00 6.4 6 Nordeste 10 Norte 0 -- -- 98
2019-01-22 01:00:00 7.1 8 Norte 10 Norte 0 -- -- 97
2019-01-22 00:00:00 7.7 7 Nordeste 10 Norte 0 -- -- 96
2019-01-21 23:00:00 8.5 5 Norte 10 Este 0 -- -- 95
2019-01-21 22:00:00 8.8 5 Nordeste 10 Nordeste 0 -- -- 94
2019-01-21 21:00:00 9.4 8 Este 11 Noroeste 0 -- -- 91
2019-01-21 20:00:00 10.7 6 Norte 12 Norte 0 -- -- 84
2019-01-21 19:00:00 12.4 9 Norte 14 Noroeste 0 -- -- 73
2019-01-21 18:00:00 14.8 10 Noroeste 22 Noroeste 0 -- -- 66
2019-01-21 17:00:00 15.6 15 Noroeste 24 Oeste 0 -- -- 70
2019-01-21 16:00:00 15.8 15 Noroeste 26 Oeste 0 -- -- 69
2019-01-21 15:00:00 15.2 21 Oeste 26 Oeste 0 -- -- 76
2019-01-21 14:00:00 15.2 12 Sudoeste 15 Norte 0 -- -- 74
2019-01-21 13:00:00 13.2 9 Nordeste 14 Nordeste 0 -- -- 77
2019-01-21 12:00:00 11.4 7 Este 14 Nordeste 0 -- -- 82
2019-01-21 11:00:00 8.9 10 Nordeste 13 Nordeste 0 -- -- 98
2019-01-21 10:00:00 6.1 5 Norte 10 Norte 0 -- -- 100
2019-01-21 09:00:00 4.8 5 Norte 8 Norte 0 -- -- 100
2019-01-21 08:00:00 5.3 6 Norte 11 Norte 0 -- -- 100
2019-01-21 07:00:00 6 8 Nordeste 12 Nordeste 0 -- -- 100
2019-01-21 06:00:00 6.5 6 Norte 10 Norte 0 -- -- 99
2019-01-21 05:00:00 7.2 8 Nordeste 12 Nordeste 0 -- -- 97
2019-01-21 04:00:00 8 7 Norte 12 Nordeste 0 -- -- 97
2019-01-21 03:00:00 8.3 5 Norte 10 Nordeste 0 -- -- 96
2019-01-21 02:00:00 8.3 9 Nordeste 14 Nordeste 0 -- -- 92
2019-01-21 01:00:00 8.8 9 Nordeste 17 Nordeste 0 -- -- 91
2019-01-21 00:00:00 9.2 11 Nordeste 13 Nordeste 0 -- -- 90
2019-01-20 23:00:00 11.1 8 Norte 22 Norte 0 -- -- 85
2019-01-20 22:00:00 12.9 13 Norte 22 Norte 0 -- -- 75
2019-01-20 21:00:00 12.8 11 Noroeste 21 Noroeste 0 -- -- 77
2019-01-20 20:00:00 12.9 15 Noroeste 26 Noroeste 0 -- -- 78
2019-01-20 19:00:00 13.3 18 Noroeste 26 Noroeste 0 -- -- 77
2019-01-20 18:00:00 14.5 14 Noroeste 30 Noroeste 0 -- -- 72
2019-01-20 17:00:00 15.6 24 Noroeste 35 Noroeste 0 -- -- 69
2019-01-20 16:00:00 15.5 25 Noroeste 37 Noroeste 0 -- -- 66
2019-01-20 15:00:00 15.5 19 Noroeste 36 Noroeste 0 -- -- 72
2019-01-20 14:00:00 14.5 25 Noroeste 40 Oeste 0 -- -- 79
2019-01-20 13:00:00 14.3 25 Noroeste 39 Noroeste 0 -- -- 78
2019-01-20 12:00:00 13.4 21 Noroeste 37 Noroeste 0 -- -- 82
2019-01-20 11:00:00 13.1 24 Noroeste 46 Noroeste 0 -- -- 81
2019-01-20 10:00:00 12.9 14 Noroeste 33 Noroeste 0 -- -- 84
2019-01-20 09:00:00 12.8 17 Noroeste 36 Noroeste 0 -- -- 89
2019-01-20 08:00:00 13.5 21 Noroeste 34 Noroeste 1 -- -- 98
2019-01-20 07:00:00 14.2 17 Noroeste 28 Noroeste 0 -- -- 95
2019-01-20 06:00:00 14.4 16 Noroeste 28 Noroeste 0 -- -- 96
2019-01-20 05:00:00 14.5 14 Noroeste 25 Oeste 0 -- -- 96
2019-01-20 04:00:00 13.7 10 Oeste 17 Noroeste 0 -- -- 96
2019-01-20 03:00:00 13.8 10 Noroeste 17 Noroeste 0 -- -- 96
2019-01-20 02:00:00 14.7 10 Noroeste 35 Oeste 0 -- -- 98
2019-01-20 01:00:00 14.5 32 Oeste 60 Oeste 2.4 -- -- 100
2019-01-20 00:00:00 14.4 41 Oeste 56 Oeste 5.6 -- -- 100
2019-01-19 23:00:00 14.9 29 Oeste 45 Oeste 1.2 -- -- 97
2019-01-19 22:00:00 14.7 31 Oeste 46 Oeste 0.4 -- -- 94
2019-01-19 21:00:00 15.6 26 Oeste 32 Oeste 0 -- -- 93
2019-01-19 20:00:00 15.3 20 Oeste 26 Oeste 0 -- -- 97
2019-01-19 19:00:00 14.7 19 Sudoeste 23 Oeste 0 -- -- 98
2019-01-19 18:00:00 14.1 8 Sudoeste 10 Sudoeste 0.2 -- -- 99
2019-01-19 17:00:00 13.9 6 Oeste 12 Sudoeste 0.2 -- -- 96
2019-01-19 16:00:00 14.1 2 Noroeste 15 Noroeste 0 -- -- 90
2019-01-19 15:00:00 14.4 8 Noroeste 19 Oeste 0 -- -- 87
2019-01-19 14:00:00 14.7 10 Noroeste 19 Noroeste 0 -- -- 88
2019-01-19 13:00:00 14 0 Calma 12 Norte 0 -- -- 92
2019-01-19 12:00:00 12.8 8 Norte 22 Noroeste 0 -- -- 96
2019-01-19 11:00:00 12.5 10 Noroeste 19 Noroeste 0 -- -- 95
2019-01-19 10:00:00 11.7 5 Norte 24 Noroeste 0 -- -- 96
2019-01-19 09:00:00 11.9 14 Noroeste 23 Noroeste 0 -- -- 95
2019-01-19 08:00:00 13 11 Noroeste 56 Oeste 0 -- -- 91
2019-01-19 07:00:00 14.1 40 Sudoeste 56 Oeste 1 -- -- 100
2019-01-19 06:00:00 13.4 33 Sudoeste 42 Sudoeste 2.2 -- -- 100
2019-01-19 05:00:00 12.4 17 Sudoeste 26 Sudoeste 1.6 -- -- 100
2019-01-19 04:00:00 12.1 22 Oeste 31 Oeste 1.2 -- -- 99
2019-01-19 03:00:00 11.7 15 Oeste 32 Oeste 0.4 -- -- 94
2019-01-19 02:00:00 14.1 21 Oeste 34 Oeste 0 -- -- 76
2019-01-19 01:00:00 13 6 Noroeste 19 Noroeste 0 -- -- 74
2019-01-19 00:00:00 12.9 6 Noroeste 17 Noroeste 0 -- -- 73